Time;durP1;ratioP1;P1;durP2;ratioP2;P2;SDS_P1;SDS_P2;PMS_P1;PMS_P2;Temp;Humidity;BMP_temperature;BMP_pressure;BME280_temperature;BME280_humidity;BME280_pressure;Samples;Min_cycle;Max_cycle;Signal;HPM_P1;HPM_P2
2023/03/07 00:01:35;;;;;;;9.30;5.60;;;2.30;99.90;;;;;;4983554;28;20038;-31
2023/03/07 00:04:00;;;;;;;10.57;5.70;;;2.30;99.90;;;;;;4971666;28;20781;-32
2023/03/07 00:06:26;;;;;;;12.25;6.00;;;2.20;99.90;;;;;;4981176;28;20133;-35
2023/03/07 00:09:00;;;;;;;9.13;5.25;;;2.30;99.90;;;;;;4983940;28;20057;-33
2023/03/07 00:11:26;;;;;;;10.35;5.82;;;2.30;99.90;;;;;;4981040;28;20431;-36
2023/03/07 00:13:52;;;;;;;8.05;5.38;;;2.30;99.90;;;;;;4988403;28;20030;-32
2023/03/07 00:16:20;;;;;;;12.57;5.65;;;2.30;99.90;;;;;;4976982;28;20440;-31
2023/03/07 00:18:47;;;;;;;10.35;6.15;;;2.30;99.90;;;;;;4984432;28;20037;-34
2023/03/07 00:21:15;;;;;;;9.27;5.63;;;2.30;99.90;;;;;;4980278;28;20733;-34
2023/03/07 00:23:42;;;;;;;10.65;6.30;;;2.30;99.90;;;;;;4979268;28;20031;-33
2023/03/07 00:26:17;;;;;;;11.20;5.63;;;2.40;99.90;;;;;;4980913;28;20039;-31
2023/03/07 00:28:45;;;;;;;8.15;5.88;;;2.40;99.90;;;;;;4990046;28;20059;-35
2023/03/07 00:31:11;;;;;;;10.18;5.30;;;2.30;99.90;;;;;;4984276;28;20049;-30
2023/03/07 00:33:38;;;;;;;9.95;5.65;;;2.30;99.90;;;;;;4980196;28;20034;-32
2023/03/07 00:36:06;;;;;;;8.40;5.18;;;2.30;99.90;;;;;;4984938;28;20059;-33
2023/03/07 00:38:33;;;;;;;9.40;5.47;;;2.30;99.90;;;;;;4983599;28;20407;-32
2023/03/07 00:41:02;;;;;;;9.13;5.68;;;2.30;99.90;;;;;;4981364;28;20047;-33
2023/03/07 00:43:29;;;;;;;10.60;6.05;;;2.30;99.90;;;;;;4982914;28;20042;-31
2023/03/07 00:45:55;;;;;;;9.30;5.95;;;2.30;99.90;;;;;;4980018;28;20117;-33
2023/03/07 00:48:21;;;;;;;10.35;5.85;;;2.30;99.90;;;;;;4979317;28;20045;-31
2023/03/07 00:50:47;;;;;;;10.30;5.38;;;2.30;99.90;;;;;;4989093;28;20050;-31
2023/03/07 00:53:13;;;;;;;9.35;5.30;;;2.30;99.90;;;;;;4977945;28;20163;-34
2023/03/07 00:55:39;;;;;;;10.07;5.95;;;2.30;99.90;;;;;;5006524;28;20055;-34
2023/03/07 00:58:05;;;;;;;13.15;6.30;;;2.30;99.90;;;;;;4980209;28;20032;-32
2023/03/07 01:00:31;;;;;;;8.98;5.78;;;2.20;99.90;;;;;;4981346;28;20668;-34
2023/03/07 01:02:57;;;;;;;11.30;6.45;;;2.20;99.90;;;;;;4980107;28;20548;-32
2023/03/07 01:05:22;;;;;;;8.57;5.05;;;2.30;99.90;;;;;;4982662;28;20035;-31
2023/03/07 01:07:48;;;;;;;9.68;5.45;;;2.30;99.90;;;;;;5007683;28;20149;-34
2023/03/07 01:10:15;;;;;;;11.50;6.28;;;2.20;99.90;;;;;;4979410;28;20482;-32
2023/03/07 01:12:42;;;;;;;9.07;5.80;;;2.30;99.90;;;;;;4975781;28;20042;-32
2023/03/07 01:15:08;;;;;;;9.90;6.47;;;2.30;99.90;;;;;;4983775;28;20023;-32
2023/03/07 01:17:34;;;;;;;12.55;6.25;;;2.30;99.90;;;;;;4983791;28;20037;-30
2023/03/07 01:20:00;;;;;;;10.27;6.30;;;2.30;99.90;;;;;;4986036;28;20034;-32
2023/03/07 01:22:26;;;;;;;12.88;6.05;;;2.20;99.90;;;;;;4976100;28;20057;-31
2023/03/07 01:24:51;;;;;;;9.98;5.32;;;2.30;99.90;;;;;;4983557;28;20504;-32
2023/03/07 01:27:17;;;;;;;12.73;5.72;;;2.30;99.90;;;;;;4982883;28;20038;-31
2023/03/07 01:29:43;;;;;;;9.00;5.82;;;2.30;99.90;;;;;;4979403;28;20633;-32
2023/03/07 01:32:08;;;;;;;11.45;6.13;;;2.30;99.90;;;;;;4981622;28;20035;-32
2023/03/07 01:34:34;;;;;;;9.85;5.95;;;2.30;99.90;;;;;;4977342;28;20064;-32
2023/03/07 01:36:59;;;;;;;7.35;5.47;;;2.30;99.90;;;;;;4981301;28;20027;-31
2023/03/07 01:39:25;;;;;;;9.77;5.50;;;2.20;99.90;;;;;;4987858;28;20034;-34
2023/03/07 01:41:50;;;;;;;7.30;5.05;;;2.20;99.90;;;;;;4987658;28;20570;-33
2023/03/07 01:44:20;;;;;;;13.18;6.10;;;2.20;99.90;;;;;;4986103;28;20493;-33
2023/03/07 01:46:48;;;;;;;8.65;5.68;;;2.10;99.90;;;;;;4984911;28;20046;-32
2023/03/07 01:49:24;;;;;;;10.63;5.97;;;2.10;99.90;;;;;;4988405;28;20046;-33
2023/03/07 01:52:16;;;;;;;14.73;6.13;;;2.10;99.90;;;;;;4982557;28;20070;-31
2023/03/07 01:54:47;;;;;;;9.43;5.60;;;2.10;99.90;;;;;;4984638;28;20042;-34
2023/03/07 01:57:15;;;;;;;7.88;4.95;;;2.10;99.90;;;;;;4980634;28;20037;-33
2023/03/07 01:59:45;;;;;;;12.00;5.85;;;2.00;99.90;;;;;;4990494;28;20113;-34
2023/03/07 02:02:16;;;;;;;12.27;6.40;;;1.90;99.90;;;;;;4977366;28;20459;-32
2023/03/07 02:05:02;;;;;;;9.70;5.90;;;1.90;99.90;;;;;;4987609;28;20388;-34
2023/03/07 02:07:34;;;;;;;9.13;4.97;;;2.00;99.90;;;;;;4982605;28;20025;-32
2023/03/07 02:10:00;;;;;;;8.27;5.50;;;1.90;99.90;;;;;;4987763;28;20048;-31
2023/03/07 02:12:26;;;;;;;9.43;5.60;;;2.00;99.90;;;;;;4981392;28;20019;-34
2023/03/07 02:14:52;;;;;;;12.05;6.72;;;1.90;99.90;;;;;;4986853;28;21616;-33
2023/03/07 02:17:18;;;;;;;8.77;5.30;;;1.90;99.90;;;;;;4983377;28;20050;-34
2023/03/07 02:20:13;;;;;;;8.50;5.13;;;1.90;99.90;;;;;;4985011;28;20085;-33
2023/03/07 02:22:39;;;;;;;8.88;5.22;;;1.90;99.90;;;;;;4982183;28;20501;-32
2023/03/07 02:25:18;;;;;;;8.30;5.07;;;1.90;99.90;;;;;;4986098;28;20081;-32
2023/03/07 02:27:44;;;;;;;8.98;4.55;;;1.80;99.90;;;;;;4983482;28;20509;-32
2023/03/07 02:30:10;;;;;;;5.03;3.53;;;1.70;99.90;;;;;;4980972;28;20555;-33
2023/03/07 02:32:36;;;;;;;11.07;6.03;;;1.70;99.90;;;;;;4979664;28;20064;-32
2023/03/07 02:35:09;;;;;;;10.95;6.80;;;1.70;99.90;;;;;;4982627;28;20069;-33
2023/03/07 02:37:37;;;;;;;7.18;4.85;;;1.70;99.90;;;;;;4980986;28;20517;-34
2023/03/07 02:40:06;;;;;;;8.57;5.22;;;1.70;99.90;;;;;;4984910;28;20442;-33
2023/03/07 02:42:36;;;;;;;9.52;5.22;;;1.80;99.90;;;;;;4980553;28;20046;-34
2023/03/07 02:45:05;;;;;;;10.77;5.93;;;1.80;99.90;;;;;;4984669;28;20087;-33
2023/03/07 02:47:31;;;;;;;9.13;4.95;;;1.80;99.90;;;;;;4985198;28;20293;-33
2023/03/07 02:49:57;;;;;;;11.20;5.40;;;1.80;99.90;;;;;;4983125;28;20061;-33
2023/03/07 02:52:22;;;;;;;6.22;4.75;;;1.80;99.90;;;;;;4983967;28;20022;-31
2023/03/07 02:54:48;;;;;;;11.65;6.03;;;1.80;99.90;;;;;;4982573;28;20031;-33
2023/03/07 02:57:14;;;;;;;9.63;5.80;;;1.80;99.90;;;;;;4981921;28;20037;-35
2023/03/07 02:59:40;;;;;;;12.60;6.38;;;1.80;99.90;;;;;;4984000;28;20037;-33
2023/03/07 03:02:06;;;;;;;9.75;4.88;;;1.80;99.90;;;;;;4981343;28;20058;-31
2023/03/07 03:04:31;;;;;;;11.02;6.00;;;1.80;99.90;;;;;;4982836;28;20476;-31
2023/03/07 03:06:57;;;;;;;10.02;5.68;;;1.80;99.90;;;;;;4987980;28;20030;-32
2023/03/07 03:09:22;;;;;;;9.57;6.05;;;1.70;99.90;;;;;;4987064;28;20034;-35
2023/03/07 03:11:48;;;;;;;12.70;5.85;;;1.70;99.90;;;;;;4982359;28;20026;-32
2023/03/07 03:14:13;;;;;;;9.60;5.78;;;1.70;99.90;;;;;;4982043;28;20038;-35
2023/03/07 03:16:40;;;;;;;10.10;5.03;;;1.70;99.90;;;;;;4984461;28;20110;-32
2023/03/07 03:19:06;;;;;;;10.02;5.20;;;1.60;99.90;;;;;;4985340;28;20952;-35
2023/03/07 03:21:32;;;;;;;9.98;5.85;;;1.60;99.90;;;;;;4981605;28;20120;-34
2023/03/07 03:24:02;;;;;;;9.80;4.80;;;1.60;99.90;;;;;;4979588;28;20038;-32
2023/03/07 03:26:28;;;;;;;10.18;5.38;;;1.60;99.90;;;;;;4979963;28;20575;-31
2023/03/07 03:28:53;;;;;;;8.77;5.25;;;1.70;99.90;;;;;;4982506;28;20038;-33
2023/03/07 03:31:19;;;;;;;9.55;4.50;;;1.70;99.90;;;;;;4983091;28;20069;-33
2023/03/07 03:33:45;;;;;;;4.70;3.45;;;1.70;99.90;;;;;;4981338;28;20061;-34
2023/03/07 03:36:14;;;;;;;9.38;5.05;;;1.60;99.90;;;;;;4973853;28;20023;-34
2023/03/07 03:38:40;;;;;;;5.93;3.80;;;1.60;99.90;;;;;;4980083;28;20436;-33
2023/03/07 03:41:07;;;;;;;12.57;5.63;;;1.60;99.90;;;;;;4983856;28;20026;-31
2023/03/07 03:43:33;;;;;;;8.75;4.95;;;1.60;99.90;;;;;;4984781;28;20504;-32
2023/03/07 03:45:59;;;;;;;9.45;4.95;;;1.60;99.90;;;;;;4993336;28;20372;-33
2023/03/07 03:48:25;;;;;;;13.95;5.05;;;1.50;99.90;;;;;;4983483;28;20073;-33
2023/03/07 03:50:59;;;;;;;9.57;5.50;;;1.60;99.90;;;;;;4986842;28;20046;-32
2023/03/07 03:53:25;;;;;;;10.55;5.60;;;1.50;99.90;;;;;;4982140;28;20018;-31
2023/03/07 03:55:50;;;;;;;7.55;4.65;;;1.50;99.90;;;;;;4984006;28;20032;-32
2023/03/07 03:58:16;;;;;;;11.90;6.05;;;1.50;99.90;;;;;;4980127;28;20022;-33
2023/03/07 04:00:43;;;;;;;8.55;4.28;;;1.50;99.90;;;;;;4984630;28;20096;-34
2023/03/07 04:03:09;;;;;;;8.10;4.63;;;1.50;99.90;;;;;;4981080;28;20542;-33
2023/03/07 04:05:35;;;;;;;10.93;4.78;;;1.50;99.90;;;;;;4980284;28;20026;-31
2023/03/07 04:08:00;;;;;;;10.35;5.45;;;1.50;99.90;;;;;;4977786;28;20386;-33
2023/03/07 04:10:26;;;;;;;6.15;3.85;;;1.50;99.90;;;;;;4984973;28;20038;-35
2023/03/07 04:12:51;;;;;;;8.30;4.03;;;1.50;99.90;;;;;;4979872;28;20041;-34
2023/03/07 04:15:17;;;;;;;9.60;5.80;;;1.50;99.90;;;;;;4978247;28;20054;-33
2023/03/07 04:17:42;;;;;;;10.95;5.63;;;1.40;99.90;;;;;;4984014;28;20022;-34
2023/03/07 04:20:16;;;;;;;11.38;5.10;;;1.50;99.90;;;;;;4978059;28;20101;-32
2023/03/07 04:22:41;;;;;;;10.18;5.10;;;1.40;99.90;;;;;;4976924;28;20031;-32
2023/03/07 04:25:07;;;;;;;2.80;2.50;;;1.40;99.90;;;;;;4982829;28;20052;-32
2023/03/07 04:27:34;;;;;;;10.95;5.72;;;1.40;99.90;;;;;;4981350;28;20034;-32
2023/03/07 04:29:59;;;;;;;10.20;4.55;;;1.40;99.90;;;;;;4982221;28;20042;-36
2023/03/07 04:32:25;;;;;;;10.43;5.75;;;1.40;99.90;;;;;;4975806;28;20042;-34
2023/03/07 04:34:51;;;;;;;6.03;3.47;;;1.30;99.90;;;;;;4984927;28;20089;-33
2023/03/07 04:37:16;;;;;;;6.38;4.18;;;1.30;99.90;;;;;;4981933;28;20041;-34
2023/03/07 04:39:42;;;;;;;14.00;6.03;;;1.30;99.90;;;;;;4983097;28;20030;-33
2023/03/07 04:42:08;;;;;;;4.63;3.58;;;1.30;99.90;;;;;;4976951;28;20416;-31
2023/03/07 04:44:33;;;;;;;2.58;2.13;;;1.30;99.90;;;;;;4978820;28;20035;-34
2023/03/07 04:46:59;;;;;;;11.18;5.80;;;1.20;99.90;;;;;;4978396;28;20488;-32
2023/03/07 04:49:24;;;;;;;8.95;5.57;;;1.20;99.90;;;;;;4977009;28;20455;-33
2023/03/07 04:51:50;;;;;;;12.93;6.10;;;1.10;99.90;;;;;;4978796;28;20133;-33
2023/03/07 04:54:16;;;;;;;8.88;5.45;;;1.10;99.90;;;;;;4984665;28;20395;-31
2023/03/07 04:56:41;;;;;;;10.95;5.50;;;1.00;99.90;;;;;;4982811;28;20026;-31
2023/03/07 04:59:07;;;;;;;11.60;5.97;;;1.00;99.90;;;;;;4985703;28;20031;-32
2023/03/07 05:01:32;;;;;;;9.80;5.88;;;1.00;99.90;;;;;;4978483;28;20439;-35
2023/03/07 05:03:58;;;;;;;9.98;5.28;;;0.90;99.90;;;;;;4975646;28;20373;-34
2023/03/07 05:06:23;;;;;;;9.82;5.40;;;0.90;99.90;;;;;;4979045;28;20037;-34
2023/03/07 05:08:49;;;;;;;13.27;5.53;;;0.90;99.90;;;;;;4981009;28;21628;-34
2023/03/07 05:11:15;;;;;;;11.00;5.43;;;0.90;99.90;;;;;;4987511;28;20030;-34
2023/03/07 05:13:40;;;;;;;10.80;5.82;;;1.00;99.90;;;;;;4985052;28;20023;-32
2023/03/07 05:16:06;;;;;;;13.18;5.18;;;1.00;99.90;;;;;;4985978;28;20078;-35
2023/03/07 05:18:32;;;;;;;7.28;4.90;;;0.90;99.90;;;;;;4990081;28;20109;-32
2023/03/07 05:20:57;;;;;;;10.93;4.88;;;0.90;99.90;;;;;;5013774;28;20436;-34
2023/03/07 05:23:23;;;;;;;8.70;5.97;;;1.00;99.90;;;;;;4987050;28;20560;-33
2023/03/07 05:25:49;;;;;;;8.98;6.40;;;1.00;99.90;;;;;;4983798;28;20029;-33
2023/03/07 05:28:15;;;;;;;13.32;6.95;;;1.00;99.90;;;;;;4986141;28;20675;-32
2023/03/07 05:30:42;;;;;;;20.27;9.82;;;1.00;99.90;;;;;;4984304;28;20117;-34
2023/03/07 05:33:08;;;;;;;15.50;9.75;;;1.00;99.90;;;;;;4979461;28;20037;-34
2023/03/07 05:35:33;;;;;;;12.95;7.72;;;1.10;99.90;;;;;;4974284;28;20035;-34
2023/03/07 05:37:59;;;;;;;16.73;8.77;;;1.00;99.90;;;;;;4977771;28;20026;-31
2023/03/07 05:40:25;;;;;;;11.73;6.85;;;1.00;99.90;;;;;;4982246;28;20411;-33
2023/03/07 05:42:50;;;;;;;17.02;9.25;;;1.00;99.90;;;;;;4957312;28;20457;-31
2023/03/07 05:45:16;;;;;;;13.77;7.20;;;1.00;99.90;;;;;;4961308;28;20601;-32
2023/03/07 05:47:42;;;;;;;13.43;7.03;;;1.00;99.90;;;;;;4960843;28;20471;-34
2023/03/07 05:50:08;;;;;;;16.02;9.25;;;1.10;99.90;;;;;;4958642;28;20121;-31
2023/03/07 05:52:34;;;;;;;15.77;9.23;;;1.00;99.90;;;;;;4958671;28;20042;-31
2023/03/07 05:55:00;;;;;;;14.98;8.40;;;1.00;99.90;;;;;;4958394;28;20546;-32
2023/03/07 05:57:25;;;;;;;11.40;5.85;;;1.00;99.90;;;;;;4960607;28;20077;-32
2023/03/07 05:59:51;;;;;;;9.25;4.93;;;1.10;99.90;;;;;;4978164;28;20192;-33
2023/03/07 06:02:16;;;;;;;11.40;6.00;;;1.10;99.90;;;;;;4957495;28;20053;-31
2023/03/07 06:04:42;;;;;;;13.98;6.32;;;1.20;99.90;;;;;;4958560;28;20066;-31
2023/03/07 06:07:08;;;;;;;4.80;4.13;;;1.20;99.90;;;;;;4959392;28;20407;-32
2023/03/07 06:09:34;;;;;;;8.80;5.78;;;1.20;99.90;;;;;;4955307;28;20038;-34
2023/03/07 06:11:59;;;;;;;8.68;4.80;;;1.30;99.90;;;;;;4956521;28;20504;-32
2023/03/07 06:14:25;;;;;;;5.97;4.40;;;1.30;99.90;;;;;;4959545;28;20515;-31
2023/03/07 06:16:51;;;;;;;10.27;4.82;;;1.30;99.90;;;;;;4964762;28;20050;-33
2023/03/07 06:19:16;;;;;;;8.82;5.07;;;1.40;99.90;;;;;;4955691;28;20031;-32
2023/03/07 06:21:42;;;;;;;10.00;5.00;;;1.50;99.90;;;;;;4956713;28;20058;-31
2023/03/07 06:24:08;;;;;;;7.35;4.28;;;1.50;99.90;;;;;;4954761;28;20034;-30
2023/03/07 06:26:34;;;;;;;11.80;5.20;;;1.60;99.90;;;;;;4959507;28;20045;-31
2023/03/07 06:29:00;;;;;;;7.53;5.20;;;1.60;99.90;;;;;;4959828;28;20023;-33
2023/03/07 06:31:27;;;;;;;11.07;5.28;;;1.60;99.90;;;;;;4972162;28;20038;-31
2023/03/07 06:33:53;;;;;;;6.38;3.88;;;1.70;99.90;;;;;;4962686;28;20054;-36
2023/03/07 06:36:19;;;;;;;7.75;5.10;;;1.80;99.90;;;;;;4959982;28;20484;-31
2023/03/07 06:38:45;;;;;;;7.95;3.90;;;1.80;99.90;;;;;;4975185;28;20072;-32
2023/03/07 06:41:11;;;;;;;12.38;5.05;;;1.80;99.90;;;;;;4984257;28;20469;-34
2023/03/07 06:43:36;;;;;;;19.38;10.18;;;1.80;99.90;;;;;;4987422;28;20034;-33
2023/03/07 06:46:02;;;;;;;8.93;5.55;;;1.90;99.90;;;;;;4989939;28;20398;-32
2023/03/07 06:48:28;;;;;;;7.00;4.03;;;1.90;99.90;;;;;;4983954;28;20062;-32
2023/03/07 06:50:54;;;;;;;8.93;4.55;;;1.90;99.90;;;;;;4989743;28;20100;-32
2023/03/07 06:53:20;;;;;;;11.00;5.35;;;2.00;99.90;;;;;;4987097;28;20031;-32
2023/03/07 06:55:49;;;;;;;8.05;3.78;;;2.00;99.90;;;;;;4994350;28;20030;-35
2023/03/07 06:58:15;;;;;;;8.25;4.15;;;2.00;99.90;;;;;;4987160;28;20035;-34
2023/03/07 07:00:41;;;;;;;6.50;4.75;;;2.00;99.90;;;;;;4985324;28;20121;-34
2023/03/07 07:03:06;;;;;;;7.68;4.20;;;2.10;99.90;;;;;;4983102;28;20038;-34
2023/03/07 07:05:32;;;;;;;6.05;4.40;;;2.10;99.90;;;;;;4991039;28;20543;-33
2023/03/07 07:07:57;;;;;;;6.85;3.92;;;2.10;99.90;;;;;;4986458;28;20486;-31
2023/03/07 07:10:23;;;;;;;9.32;5.13;;;2.10;99.90;;;;;;4987684;28;20580;-33
2023/03/07 07:12:53;;;;;;;7.65;5.00;;;2.20;99.90;;;;;;4985792;28;20061;-33
2023/03/07 07:15:19;;;;;;;6.63;4.70;;;2.20;99.90;;;;;;4984395;28;20037;-31
2023/03/07 07:17:44;;;;;;;5.38;2.85;;;2.30;99.90;;;;;;4985450;28;20398;-33
2023/03/07 07:20:10;;;;;;;6.95;3.47;;;2.40;99.90;;;;;;4983114;28;20479;-33
2023/03/07 07:22:36;;;;;;;6.72;3.85;;;2.40;99.90;;;;;;4978537;28;20511;-34
2023/03/07 07:25:02;;;;;;;13.02;5.28;;;2.40;99.90;;;;;;4984287;28;20030;-35
2023/03/07 07:27:28;;;;;;;7.50;4.57;;;2.40;99.90;;;;;;4983384;28;20026;-31
2023/03/07 07:29:54;;;;;;;7.32;4.13;;;2.50;99.90;;;;;;4992451;28;20077;-32
2023/03/07 07:32:19;;;;;;;7.18;4.32;;;2.60;99.90;;;;;;4978023;28;20058;-32
2023/03/07 07:34:45;;;;;;;9.95;4.68;;;2.60;99.90;;;;;;4983107;28;20038;-31
2023/03/07 07:37:11;;;;;;;5.32;3.30;;;2.70;99.90;;;;;;4981341;28;20472;-32
2023/03/07 07:39:40;;;;;;;8.18;5.15;;;2.80;99.90;;;;;;4977156;28;20489;-32
2023/03/07 07:42:05;;;;;;;3.63;3.30;;;2.90;99.90;;;;;;4980197;28;20448;-32
2023/03/07 07:44:31;;;;;;;9.45;4.43;;;3.00;99.90;;;;;;5014300;28;20109;-34
2023/03/07 07:46:57;;;;;;;7.43;4.65;;;3.10;99.90;;;;;;4977013;28;20121;-32
2023/03/07 07:49:22;;;;;;;5.30;4.13;;;3.20;99.90;;;;;;4984735;28;20122;-32
2023/03/07 07:51:48;;;;;;;6.70;3.97;;;3.20;99.90;;;;;;4978935;28;20025;-32
2023/03/07 07:54:13;;;;;;;9.25;4.15;;;3.30;99.90;;;;;;4980036;28;20031;-33
2023/03/07 07:56:40;;;;;;;4.35;3.75;;;3.40;99.90;;;;;;4986143;28;20383;-32
2023/03/07 07:59:06;;;;;;;12.20;4.85;;;3.50;99.90;;;;;;4990555;28;20105;-32
2023/03/07 08:01:31;;;;;;;12.18;5.32;;;3.50;99.90;;;;;;4974039;28;20113;-33
2023/03/07 08:03:57;;;;;;;2.97;2.67;;;3.70;99.90;;;;;;4987860;28;20432;-35
2023/03/07 08:06:26;;;;;;;13.18;6.72;;;3.80;99.90;;;;;;4980856;28;20085;-33
2023/03/07 08:08:52;;;;;;;8.07;4.68;;;3.80;99.90;;;;;;4982284;28;20536;-33
2023/03/07 08:11:19;;;;;;;6.50;5.43;;;3.90;99.90;;;;;;4976729;28;20039;-32
2023/03/07 08:13:45;;;;;;;11.00;4.90;;;4.10;99.90;;;;;;4992516;28;20031;-31
2023/03/07 08:16:18;;;;;;;6.82;4.25;;;4.20;99.90;;;;;;4984420;28;20026;-33
2023/03/07 08:18:50;;;;;;;6.43;4.25;;;4.10;99.90;;;;;;4985962;28;20026;-32
2023/03/07 08:21:15;;;;;;;10.55;5.25;;;4.30;99.90;;;;;;4986500;28;20034;-32
2023/03/07 08:23:41;;;;;;;8.30;3.60;;;4.30;99.40;;;;;;4986491;28;20045;-34
2023/03/07 08:26:08;;;;;;;5.72;4.20;;;4.50;99.90;;;;;;4981322;28;20108;-33
2023/03/07 08:28:35;;;;;;;5.93;4.47;;;4.60;99.90;;;;;;4973587;28;20062;-32
2023/03/07 08:31:16;;;;;;;5.70;3.90;;;4.60;99.90;;;;;;4981019;28;20301;-31
2023/03/07 08:33:42;;;;;;;3.33;3.05;;;4.70;98.00;;;;;;4986911;28;20052;-35
2023/03/07 08:36:08;;;;;;;13.30;4.57;;;4.60;99.00;;;;;;4984586;28;20035;-32
2023/03/07 08:38:34;;;;;;;5.78;2.80;;;4.80;99.90;;;;;;4979338;28;20698;-33
2023/03/07 08:41:02;;;;;;;10.90;4.05;;;5.00;99.20;;;;;;4985088;28;20148;-31
2023/03/07 08:43:30;;;;;;;9.90;5.28;;;5.00;98.60;;;;;;4984116;28;20033;-34
2023/03/07 08:45:56;;;;;;;6.00;4.23;;;5.00;98.80;;;;;;4979340;28;20057;-32
2023/03/07 08:48:22;;;;;;;7.35;4.53;;;4.90;95.70;;;;;;4979602;28;20132;-34
2023/03/07 08:50:48;;;;;;;8.15;4.82;;;4.70;96.50;;;;;;4982969;28;20092;-32
2023/03/07 08:53:13;;;;;;;7.97;4.45;;;4.70;98.60;;;;;;4983906;28;20331;-32
2023/03/07 08:55:39;;;;;;;5.43;3.33;;;4.80;96.50;;;;;;4987798;28;20023;-35
2023/03/07 08:58:05;;;;;;;8.90;5.00;;;4.80;96.70;;;;;;4981564;28;20018;-33
2023/03/07 09:00:31;;;;;;;11.00;5.15;;;4.80;98.90;;;;;;4984989;28;20381;-34
2023/03/07 09:03:00;;;;;;;5.88;3.55;;;4.90;96.50;;;;;;4980825;28;20026;-33
2023/03/07 09:05:27;;;;;;;8.13;4.55;;;5.00;95.50;;;;;;4983908;28;20035;-33
2023/03/07 09:07:53;;;;;;;5.53;4.15;;;5.10;96.70;;;;;;4981246;28;20035;-34
2023/03/07 09:10:19;;;;;;;9.90;5.40;;;5.30;94.40;;;;;;4983453;28;20045;-35
2023/03/07 09:12:46;;;;;;;7.13;4.93;;;5.10;95.10;;;;;;4984506;28;20022;-34
2023/03/07 09:15:11;;;;;;;6.03;3.70;;;5.10;91.40;;;;;;4982015;28;20039;-35
2023/03/07 09:17:37;;;;;;;9.70;4.22;;;4.80;93.90;;;;;;4983127;28;20022;-32
2023/03/07 09:20:04;;;;;;;6.43;3.50;;;4.90;93.60;;;;;;4985527;28;20130;-33
2023/03/07 09:22:30;;;;;;;4.05;3.63;;;4.90;94.60;;;;;;4983407;28;20038;-34
2023/03/07 09:24:56;;;;;;;4.82;3.58;;;5.10;93.70;;;;;;4983277;28;20386;-34
2023/03/07 09:27:22;;;;;;;5.88;4.53;;;5.20;92.50;;;;;;4983227;28;20546;-33
2023/03/07 09:29:47;;;;;;;5.00;4.50;;;5.30;92.10;;;;;;4982830;28;20034;-34
2023/03/07 09:32:13;;;;;;;9.30;4.90;;;5.20;91.10;;;;;;4979930;28;20046;-33
2023/03/07 09:34:39;;;;;;;9.27;4.97;;;5.20;91.90;;;;;;4991529;28;20026;-32
2023/03/07 09:37:04;;;;;;;7.47;4.43;;;5.20;91.90;;;;;;4978468;28;20069;-35
2023/03/07 09:39:31;;;;;;;8.07;3.92;;;5.10;92.10;;;;;;4988934;28;20119;-33
2023/03/07 09:42:18;;;;;;;8.90;5.18;;;5.10;93.60;;;;;;4981658;28;20030;-33
2023/03/07 09:45:08;;;;;;;9.25;4.45;;;5.30;88.70;;;;;;4982239;28;20038;-34
2023/03/07 09:47:43;;;;;;;6.63;4.55;;;5.40;90.50;;;;;;4988227;28;20045;-31
2023/03/07 09:50:14;;;;;;;6.93;4.53;;;5.60;88.60;;;;;;4983968;28;20042;-32
2023/03/07 09:52:41;;;;;;;7.95;4.63;;;5.70;90.30;;;;;;4980334;28;20543;-32
2023/03/07 09:55:16;;;;;;;6.75;4.07;;;5.60;85.20;;;;;;4989729;28;20113;-34
2023/03/07 09:57:50;;;;;;;7.07;4.25;;;5.70;87.80;;;;;;4987271;28;20781;-33
2023/03/07 10:00:22;;;;;;;7.40;4.43;;;5.80;81.60;;;;;;4981693;28;20056;-35
2023/03/07 10:02:59;;;;;;;7.07;4.05;;;5.90;80.30;;;;;;4981444;28;20034;-33
2023/03/07 10:05:54;;;;;;;7.93;4.22;;;5.80;79.80;;;;;;4988000;28;20045;-31
2023/03/07 10:08:32;;;;;;;6.75;4.22;;;5.70;82.20;;;;;;4984274;28;20041;-32
2023/03/07 10:11:14;;;;;;;6.13;3.70;;;5.80;80.80;;;;;;4992310;28;20146;-33
2023/03/07 10:14:15;;;;;;;7.20;4.40;;;5.90;78.80;;;;;;4990054;28;20026;-32
2023/03/07 10:16:53;;;;;;;7.50;4.80;;;5.90;84.00;;;;;;4987150;28;20050;-31
2023/03/07 10:19:35;;;;;;;9.73;4.80;;;5.90;78.20;;;;;;4991182;28;20026;-34
2023/03/07 10:22:07;;;;;;;8.30;4.32;;;5.90;76.30;;;;;;4980733;28;20054;-33
2023/03/07 10:24:59;;;;;;;7.70;4.97;;;5.90;74.90;;;;;;4988043;28;20077;-33
2023/03/07 10:27:29;;;;;;;7.07;4.75;;;6.10;77.80;;;;;;4992962;28;20152;-34
2023/03/07 10:29:58;;;;;;;5.32;3.38;;;6.10;71.20;;;;;;4995118;28;20132;-31
2023/03/07 10:32:40;;;;;;;9.40;4.30;;;6.00;75.50;;;;;;4984579;28;20502;-33
2023/03/07 10:35:14;;;;;;;9.23;5.00;;;6.20;75.70;;;;;;4978686;28;20061;-31
2023/03/07 10:37:40;;;;;;;9.55;4.80;;;6.30;73.70;;;;;;4980543;28;20542;-34
2023/03/07 10:40:34;;;;;;;6.85;4.32;;;6.10;73.60;;;;;;4983366;28;20047;-34
2023/03/07 10:42:59;;;;;;;7.55;4.22;;;6.00;76.30;;;;;;4986192;28;20042;-33
2023/03/07 10:45:29;;;;;;;4.68;3.17;;;6.10;76.40;;;;;;4983492;28;20319;-35
2023/03/07 10:48:14;;;;;;;8.75;5.38;;;6.00;76.20;;;;;;4981192;28;20030;-35
2023/03/07 10:51:05;;;;;;;6.20;3.45;;;6.10;74.60;;;;;;4999214;28;20431;-32
2023/03/07 10:53:35;;;;;;;9.50;6.50;;;6.20;78.30;;;;;;4986700;28;20503;-31
2023/03/07 10:56:13;;;;;;;9.68;6.25;;;6.40;71.30;;;;;;4983429;28;20053;-34
2023/03/07 10:58:40;;;;;;;3.45;2.40;;;6.30;70.90;;;;;;4987749;28;20030;-35
2023/03/07 11:01:05;;;;;;;9.02;6.25;;;6.30;76.00;;;;;;4986935;28;20045;-33
2023/03/07 11:03:33;;;;;;;7.25;3.42;;;6.40;70.80;;;;;;4984105;28;20034;-32
2023/03/07 11:05:59;;;;;;;8.70;6.13;;;6.40;70.30;;;;;;4983392;28;20045;-32
2023/03/07 11:08:35;;;;;;;6.28;5.13;;;6.40;71.40;;;;;;4982888;28;20035;-35
2023/03/07 11:11:03;;;;;;;6.70;4.90;;;6.40;75.80;;;;;;4985695;28;20453;-35
2023/03/07 11:13:30;;;;;;;5.55;3.72;;;6.40;75.90;;;;;;4979340;28;20031;-34
2023/03/07 11:16:20;;;;;;;9.27;4.97;;;6.80;75.10;;;;;;4982426;28;20034;-33
2023/03/07 11:18:46;;;;;;;7.03;4.47;;;7.00;74.80;;;;;;4990891;28;20023;-34
2023/03/07 11:21:33;;;;;;;10.75;4.97;;;6.90;71.30;;;;;;4979742;28;20046;-33
2023/03/07 11:24:01;;;;;;;7.63;3.55;;;6.90;70.00;;;;;;4978489;28;20039;-34
2023/03/07 11:26:36;;;;;;;8.63;4.13;;;7.00;69.10;;;;;;4983529;28;20103;-31
2023/03/07 11:29:13;;;;;;;6.25;4.30;;;6.80;70.20;;;;;;4988464;28;20026;-34
2023/03/07 11:32:03;;;;;;;9.13;4.25;;;6.80;73.30;;;;;;4984476;28;20423;-33
2023/03/07 11:34:45;;;;;;;8.35;4.15;;;6.90;70.60;;;;;;4981722;28;20559;-35
2023/03/07 11:37:17;;;;;;;7.03;4.05;;;6.50;70.10;;;;;;4980998;28;20068;-32
2023/03/07 11:39:56;;;;;;;6.55;4.47;;;6.60;71.60;;;;;;4983196;28;20029;-33
2023/03/07 11:42:56;;;;;;;9.02;4.25;;;6.90;77.50;;;;;;4983406;28;20369;-35
2023/03/07 11:45:48;;;;;;;5.40;4.20;;;6.80;72.00;;;;;;4979368;28;20061;-32
2023/03/07 11:48:39;;;;;;;11.65;5.72;;;7.00;70.50;;;;;;4986757;28;20031;-32
2023/03/07 11:51:13;;;;;;;7.10;4.30;;;6.80;68.50;;;;;;4984249;28;20041;-34
2023/03/07 11:54:00;;;;;;;8.68;4.85;;;6.80;69.80;;;;;;4978211;28;20022;-33
2023/03/07 11:56:32;;;;;;;7.82;4.85;;;6.80;70.60;;;;;;4984503;28;20022;-31
2023/03/07 11:59:00;;;;;;;6.57;5.35;;;6.80;73.00;;;;;;4987450;28;20026;-33
2023/03/07 12:01:54;;;;;;;8.07;4.43;;;6.90;72.70;;;;;;4978554;28;20059;-31
2023/03/07 12:04:40;;;;;;;7.78;4.78;;;6.90;72.40;;;;;;4984614;28;20361;-34
2023/03/07 12:07:24;;;;;;;7.57;4.20;;;7.00;76.50;;;;;;4979186;28;20030;-31
2023/03/07 12:10:09;;;;;;;11.65;6.25;;;7.20;68.50;;;;;;5011762;28;20030;-32
2023/03/07 12:12:43;;;;;;;13.38;4.80;;;7.30;67.10;;;;;;4986562;28;20096;-33
2023/03/07 12:15:15;;;;;;;9.68;5.28;;;7.20;69.00;;;;;;4985493;28;20023;-32
2023/03/07 12:17:49;;;;;;;8.73;4.63;;;7.00;66.00;;;;;;4984768;28;20608;-32
2023/03/07 12:20:28;;;;;;;6.72;4.22;;;7.20;69.40;;;;;;4984365;28;20033;-32
2023/03/07 12:23:18;;;;;;;7.03;4.63;;;7.30;66.10;;;;;;4982814;28;20043;-34
2023/03/07 12:25:57;;;;;;;9.35;4.60;;;7.40;67.60;;;;;;4982800;28;20554;-35
2023/03/07 12:28:44;;;;;;;9.73;4.28;;;7.30;68.50;;;;;;4979532;28;20034;-33
2023/03/07 12:31:22;;;;;;;7.43;6.07;;;7.40;69.90;;;;;;4972142;28;20040;-34
2023/03/07 12:33:59;;;;;;;8.63;4.70;;;7.30;65.00;;;;;;4982098;28;20038;-31
2023/03/07 12:36:41;;;;;;;4.70;2.85;;;7.50;69.80;;;;;;4983052;28;20581;-34
2023/03/07 12:39:29;;;;;;;6.70;4.28;;;7.60;66.40;;;;;;4986176;28;20026;-33
2023/03/07 12:42:19;;;;;;;11.18;4.50;;;7.00;63.70;;;;;;4983412;28;21684;-33
2023/03/07 12:44:50;;;;;;;7.93;4.93;;;7.20;66.00;;;;;;4981014;28;20030;-33
2023/03/07 12:47:38;;;;;;;7.78;4.75;;;7.50;65.70;;;;;;5010329;28;20030;-33
2023/03/07 12:50:10;;;;;;;9.35;5.55;;;7.20;66.80;;;;;;4982071;28;20057;-32
2023/03/07 12:53:04;;;;;;;9.15;4.88;;;7.30;66.90;;;;;;4985022;28;20149;-32
2023/03/07 12:55:43;;;;;;;10.80;5.35;;;7.20;65.50;;;;;;4980588;28;20054;-35
2023/03/07 12:58:37;;;;;;;13.43;5.20;;;7.30;66.20;;;;;;4984722;28;20026;-31
2023/03/07 13:01:12;;;;;;;8.75;4.82;;;7.50;67.00;;;;;;4980571;28;20027;-34
2023/03/07 13:03:57;;;;;;;8.05;5.10;;;7.30;62.80;;;;;;4984714;28;20496;-33
2023/03/07 13:06:24;;;;;;;9.70;4.38;;;7.50;66.10;;;;;;5007655;28;20033;-30